Archival Weather

Chicago O'Hare International

Chicago, Illinois (KORD)

Report from: Saturday, March 18, 2023 5:51 PM CDT
Current time: Saturday, March 2, 2024 4:23 AM CST

Current weather – Weather history – Daily summaries
Weather forecast

Present weatherLight snow
Temperature-5.0°C (23.0°F)
Wind chill-11.9°C (10.6°F)
Dew point-13.3°C (8.1°F)
Winds 12 kts (6.2 m/s, 13.8 mph) West-Northwest (290°)
Wind gusts 22 kts (11.3 m/s, 25.3 mph)
Peak wind 28 kts (14.4 m/s, 32.2 mph) West-Northwest (290°) at 22:39
Visibility9 mi. (14.5 km)
Clouds Ceiling: Broken clouds 4,000 ft. (1,219 m)
Broken clouds 5,000 ft. (1,524 m)
Broken clouds 6,500 ft. (1,981 m)
Altimeter30.09 in.Hg (1019 mB)
PrecipitiationTrace
Relative humidity52 %
Density altitude-2,663 ft. (-812 m)
Sea-level pressure102.0 kPa (1020 mB, 30.12 in.Hg)
Remarks Automated weather observing station with precipitation discriminator
Flight conditions Visual Meteorological Conditions
Raw dataKORD 182251Z 29012G22KT 9SM -SN BKN040 BKN050 BKN065 M05/M13 A3009 RMK AO2 PK WND 29028/2239 SLP200 P0000 T10501133
An error has occurred. This application may no longer respond until reloaded. Reload 🗙